Time;durP1;ratioP1;P1;durP2;ratioP2;P2;SDS_P1;SDS_P2;PMS_P1;PMS_P2;Temp;Humidity;BMP_temperature;BMP_pressure;BME280_temperature;BME280_humidity;BME280_pressure;Samples;Min_cycle;Max_cycle;Signal;HPM_P1;HPM_P2
2021/09/27 00:01:10;;;;;;;13.52;10.48;;;;;;;20.89;62.07;99814.25;6219583;23;20507;-78
2021/09/27 00:03:44;;;;;;;13.60;10.30;;;;;;;20.87;62.46;99811.72;6245730;23;20067;-78
2021/09/27 00:06:12;;;;;;;15.70;11.05;;;;;;;20.90;61.73;99807.91;6219369;23;20052;-78
2021/09/27 00:08:39;;;;;;;15.00;11.18;;;;;;;20.89;61.60;99809.72;6219092;23;20020;-78
2021/09/27 00:11:10;;;;;;;14.95;10.63;;;;;;;20.89;61.84;99811.56;6219264;23;20107;-79
2021/09/27 00:13:41;;;;;;;14.85;11.52;;;;;;;20.86;62.09;99799.28;6245739;23;20071;-78
2021/09/27 00:16:10;;;;;;;13.60;11.23;;;;;;;20.85;61.72;99794.13;6246093;23;20063;-78
2021/09/27 00:18:40;;;;;;;12.35;10.77;;;;;;;20.80;62.10;99806.13;6219669;23;20521;-78
2021/09/27 00:21:12;;;;;;;13.93;11.48;;;;;;;20.79;61.87;99808.94;6245847;23;20063;-78
2021/09/27 00:23:41;;;;;;;12.63;9.70;;;;;;;20.75;61.94;99796.88;6219201;23;20020;-78
2021/09/27 00:26:08;;;;;;;15.02;10.98;;;;;;;20.72;61.60;99800.69;6219191;23;20095;-78
2021/09/27 00:28:36;;;;;;;15.32;11.45;;;;;;;20.68;61.76;99805.47;6219548;23;20020;-78
2021/09/27 00:31:04;;;;;;;14.40;11.40;;;;;;;20.66;61.77;99802.13;6219637;23;20087;-79
2021/09/27 00:33:33;;;;;;;11.13;10.02;;;;;;;20.63;62.31;99794.41;6219385;23;20027;-78
2021/09/27 00:36:00;;;;;;;14.43;11.85;;;;;;;20.63;62.11;99793.59;6246466;23;20119;-78
2021/09/27 00:38:27;;;;;;;13.98;11.23;;;;;;;20.61;61.96;99791.06;6219500;23;20495;-78
2021/09/27 00:40:58;;;;;;;13.38;10.98;;;;;;;20.59;62.33;99790.34;6219202;23;20023;-79
2021/09/27 00:43:30;;;;;;;15.82;11.43;;;;;;;20.57;62.62;99792.34;6219814;23;20020;-79
2021/09/27 00:46:00;;;;;;;15.30;11.75;;;;;;;20.56;62.64;99801.38;6219186;23;20224;-78
2021/09/27 00:48:28;;;;;;;18.15;11.82;;;;;;;20.55;62.49;99800.53;6219123;23;20035;-78
2021/09/27 00:51:06;;;;;;;18.25;12.48;;;;;;;20.53;62.89;99805.16;6245595;23;20032;-79
2021/09/27 00:53:38;;;;;;;18.65;12.70;;;;;;;20.53;62.81;99801.69;6246176;23;20403;-79
2021/09/27 00:56:07;;;;;;;18.10;11.73;;;;;;;20.52;62.39;99805.34;6219486;23;20098;-78
2021/09/27 00:58:35;;;;;;;15.82;12.32;;;;;;;20.50;62.57;99816.19;6221189;23;20099;-78
2021/09/27 01:01:05;;;;;;;15.55;12.18;;;;;;;20.48;62.99;99812.00;6221331;23;20352;-78
2021/09/27 01:03:34;;;;;;;17.08;13.45;;;;;;;20.46;62.80;99804.13;6221537;23;20031;-78
2021/09/27 01:06:09;;;;;;;15.68;12.65;;;;;;;20.42;63.84;99808.91;6247754;23;20051;-79
2021/09/27 01:08:54;;;;;;;13.80;11.23;;;;;;;20.39;63.66;99798.53;6220925;23;20099;-78
2021/09/27 01:11:32;;;;;;;15.85;12.50;;;;;;;20.41;63.83;99798.38;6247426;23;20074;-79
2021/09/27 01:14:22;;;;;;;15.27;12.88;;;;;;;20.40;63.91;99797.53;6246285;23;20415;-79
2021/09/27 01:17:04;;;;;;;15.75;12.27;;;;;;;20.38;63.66;99791.50;6221187;23;20063;-79
2021/09/27 01:20:05;;;;;;;17.08;12.80;;;;;;;20.39;63.75;99787.84;6247282;23;20795;-78
2021/09/27 01:23:15;;;;;;;27.33;13.02;;;;;;;20.39;63.71;99792.31;6221352;23;20495;-79
2021/09/27 01:26:23;;;;;;;14.23;11.75;;;;;;;20.39;63.83;99786.97;6205091;23;20054;-78
2021/09/27 01:29:08;;;;;;;16.42;12.63;;;;;;;20.40;63.69;99789.50;6220999;23;20103;-78
2021/09/27 01:32:12;;;;;;;14.85;12.80;;;;;;;20.40;63.67;99785.97;6220304;23;20054;-79
2021/09/27 01:35:06;;;;;;;17.02;12.60;;;;;;;20.42;63.65;99787.50;6220590;23;20020;-78
2021/09/27 01:38:07;;;;;;;;;;;;;;;20.44;62.81;99782.88;6221206;23;20044;-79
2021/09/27 01:40:34;;;;;;;13.18;10.95;;;;;;;20.52;62.84;99783.97;6220803;23;19947;-79
2021/09/27 01:43:21;;;;;;;16.40;13.45;;;;;;;20.48;63.52;99782.56;6247431;23;20099;-78
2021/09/27 01:46:12;;;;;;;14.07;11.32;;;;;;;20.51;62.81;99795.63;6220346;23;20062;-79
2021/09/27 01:49:12;;;;;;;17.13;12.82;;;;;;;20.48;63.33;99796.75;6202652;23;20028;-78
2021/09/27 01:52:15;;;;;;;16.67;12.52;;;;;;;20.50;63.65;99794.78;6220775;23;20495;-78
2021/09/27 01:54:47;;;;;;;18.83;13.63;;;;;;;20.54;63.04;99798.00;6207215;23;20024;-78
2021/09/27 01:57:34;;;;;;;16.85;12.80;;;;;;;20.54;63.01;99790.84;6220774;23;20027;-78
2021/09/27 02:00:10;;;;;;;15.93;13.18;;;;;;;20.53;63.51;99793.66;6246704;23;20087;-78
2021/09/27 02:02:37;;;;;;;15.18;13.07;;;;;;;20.53;63.00;99782.97;6220807;23;20091;-78
2021/09/27 02:05:14;;;;;;;16.67;13.93;;;;;;;20.51;63.65;99795.63;6220091;23;20099;-78
2021/09/27 02:08:04;;;;;;;19.23;14.88;;;;;;;20.49;63.71;99794.94;6220030;23;20365;-78
2021/09/27 02:10:53;;;;;;;16.13;14.05;;;;;;;20.47;63.61;99791.56;6220410;23;20064;-79
2021/09/27 02:13:34;;;;;;;16.33;13.48;;;;;;;20.48;63.64;99783.41;6247212;23;20095;-78
2021/09/27 02:16:09;;;;;;;17.98;14.05;;;;;;;20.46;63.67;99784.53;6219973;23;20074;-79
2021/09/27 02:19:05;;;;;;;16.20;14.35;;;;;;;20.39;63.92;99785.16;6246819;23;20103;-79
2021/09/27 02:21:37;;;;;;;18.25;14.20;;;;;;;20.41;63.17;99785.00;6208168;23;20099;-78
2021/09/27 02:24:16;;;;;;;17.55;15.48;;;;;;;20.34;63.68;99779.44;6220310;23;20110;-79
2021/09/27 02:26:46;;;;;;;17.65;15.15;;;;;;;20.33;63.52;99782.25;6219989;23;20095;-78
2021/09/27 02:29:14;;;;;;;19.73;16.08;;;;;;;20.28;63.42;99775.53;6220138;23;20107;-79
2021/09/27 02:31:53;;;;;;;20.52;15.90;;;;;;;20.21;64.18;99779.78;6246573;23;20099;-78
2021/09/27 02:34:36;;;;;;;16.88;14.90;;;;;;;20.15;64.31;99775.88;6219855;23;20355;-79
2021/09/27 02:37:35;;;;;;;19.27;15.60;;;;;;;20.10;64.49;99779.97;6246336;23;20055;-78
2021/09/27 02:40:14;;;;;;;20.98;16.60;;;;;;;20.03;64.53;99783.25;6191790;23;20079;-78
2021/09/27 02:42:57;;;;;;;22.17;15.77;;;;;;;19.98;64.95;99774.84;6219632;23;20059;-79
2021/09/27 02:45:26;;;;;;;18.70;16.30;;;;;;;19.97;64.12;99778.50;6219607;23;20104;-78
2021/09/27 02:48:28;;;;;;;19.00;16.35;;;;;;;19.91;64.87;99779.06;6220069;23;20440;-78
2021/09/27 02:50:56;;;;;;;20.63;16.13;;;;;;;19.87;64.49;99770.50;6218911;23;20023;-79
2021/09/27 02:53:23;;;;;;;20.17;17.23;;;;;;;19.85;64.27;99768.97;6218519;23;20110;-79
2021/09/27 02:56:20;;;;;;;20.42;16.75;;;;;;;19.77;65.06;99764.34;6218603;23;20095;-79
2021/09/27 02:59:06;;;;;;;19.38;15.80;;;;;;;19.72;65.07;99764.81;6217624;23;20107;-78
2021/09/27 03:02:13;;;;;;;17.77;15.43;;;;;;;19.67;65.22;99765.25;6218577;23;20047;-78
2021/09/27 03:05:11;;;;;;;20.00;15.75;;;;;;;19.63;65.57;99760.38;6218350;23;20024;-78
2021/09/27 03:07:57;;;;;;;19.25;16.35;;;;;;;19.64;64.57;99762.88;6209638;23;20099;-79
2021/09/27 03:10:49;;;;;;;18.38;14.95;;;;;;;19.56;65.18;99767.25;6245129;23;20099;-78
2021/09/27 03:13:37;;;;;;;19.80;15.48;;;;;;;19.52;65.60;99767.53;6245470;23;20111;-78
2021/09/27 03:16:07;;;;;;;21.40;15.63;;;;;;;19.54;64.65;99754.06;6245264;23;20440;-78
2021/09/27 03:18:53;;;;;;;20.13;16.67;;;;;;;19.51;64.85;99757.88;6218577;23;20039;-78
2021/09/27 03:21:32;;;;;;;19.48;16.08;;;;;;;19.45;66.00;99750.44;6218007;23;20027;-78
2021/09/27 03:24:30;;;;;;;20.10;15.55;;;;;;;19.43;65.80;99759.59;6218177;23;20116;-78
2021/09/27 03:27:09;;;;;;;19.75;15.18;;;;;;;19.44;65.70;99747.91;6218678;23;20098;-79
2021/09/27 03:30:01;;;;;;;18.23;15.60;;;;;;;19.39;65.48;99751.88;6245048;23;20095;-79
2021/09/27 03:32:43;;;;;;;20.48;15.63;;;;;;;19.44;64.63;99742.59;6218427;23;20036;-78
2021/09/27 03:35:19;;;;;;;18.52;16.52;;;;;;;19.37;65.34;99740.47;6218560;23;20103;-79
2021/09/27 03:38:04;;;;;;;20.00;16.23;;;;;;;19.33;65.71;99741.75;6218333;23;20024;-78
2021/09/27 03:40:53;;;;;;;18.60;14.85;;;;;;;19.31;65.78;99751.75;6218134;23;20047;-78
2021/09/27 03:43:26;;;;;;;21.55;15.52;;;;;;;19.31;65.92;99745.56;6218217;23;20024;-78
2021/09/27 03:46:18;;;;;;;21.80;17.35;;;;;;;19.26;65.94;99754.84;6218352;23;20058;-78
2021/09/27 04:02:19;;;;;;;20.70;14.85;;;;;;;19.14;65.28;99745.34;6073342;22;1378335;-79
2021/09/27 04:05:07;;;;;;;19.02;14.90;;;;;;;19.06;65.71;99758.56;6103915;23;20027;-79
2021/09/27 04:07:46;;;;;;;18.73;15.20;;;;;;;18.98;65.99;99749.41;6103761;23;20065;-79
2021/09/27 04:10:26;;;;;;;19.65;15.57;;;;;;;18.97;66.07;99746.88;6104328;23;20097;-79
2021/09/27 04:13:41;;;;;;;21.98;16.42;;;;;;;18.91;66.59;99739.44;6105763;23;20465;-79
2021/09/27 04:16:17;;;;;;;19.20;15.48;;;;;;;18.92;66.19;99738.47;6104102;23;20033;-79
2021/09/27 04:19:02;;;;;;;19.40;16.23;;;;;;;18.89;66.77;99737.75;6105379;23;20026;-79
2021/09/27 04:21:48;;;;;;;20.27;15.10;;;;;;;18.89;66.99;99743.06;6104106;23;20058;-79
2021/09/27 04:24:20;;;;;;;19.27;15.38;;;;;;;18.93;65.77;99740.13;6105936;23;20105;-79
2021/09/27 04:27:23;;;;;;;23.52;16.85;;;;;;;18.87;66.75;99745.06;6105322;23;20123;-79
2021/09/27 04:30:12;;;;;;;20.35;16.30;;;;;;;18.85;66.70;99743.53;6103799;23;20028;-79
2021/09/27 04:32:57;;;;;;;18.58;14.77;;;;;;;18.87;65.71;99736.19;6104733;23;20407;-79
2021/09/27 04:35:47;;;;;;;19.02;15.80;;;;;;;18.82;66.15;99744.66;6103854;23;20506;-79
2021/09/27 04:38:16;;;;;;;19.40;15.43;;;;;;;18.81;66.27;99740.31;6103858;23;20061;-79
2021/09/27 04:41:03;;;;;;;20.75;15.93;;;;;;;18.75;66.98;99740.84;6104205;23;20509;-79
2021/09/27 04:43:39;;;;;;;19.30;15.63;;;;;;;18.78;67.27;99734.38;6103859;23;20105;-79
2021/09/27 04:46:40;;;;;;;19.65;16.20;;;;;;;18.80;67.60;99737.78;6105160;23;20097;-79
2021/09/27 04:49:25;;;;;;;18.50;14.35;;;;;;;18.81;67.41;99742.13;6103647;23;20105;-79
2021/09/27 04:52:09;;;;;;;18.33;14.55;;;;;;;18.83;67.52;99738.31;6104290;23;20404;-79
2021/09/27 04:54:49;;;;;;;18.60;14.32;;;;;;;18.88;67.67;99745.91;6103541;23;20101;-79
2021/09/27 04:57:53;;;;;;;18.05;14.80;;;;;;;18.88;67.35;99733.41;6103717;23;20425;-79
2021/09/27 05:00:57;;;;;;;17.48;14.27;;;;;;;18.91;67.21;99718.94;6103615;23;20061;-80
2021/09/27 05:03:51;;;;;;;21.58;15.60;;;;;;;18.96;67.02;99723.84;6097448;23;20026;-79
2021/09/27 05:06:36;;;;;;;;;;;;;;;18.99;66.93;99720.91;6097292;23;20105;-79
2021/09/27 05:09:13;;;;;;;16.55;13.40;;;;;;;19.04;66.02;99720.47;6097460;23;20021;-79
2021/09/27 05:11:54;;;;;;;15.65;13.65;;;;;;;19.00;66.81;99719.91;6097207;23;20024;-79
2021/09/27 05:14:30;;;;;;;18.20;14.38;;;;;;;19.00;66.85;99718.06;6096958;23;20038;-79
2021/09/27 05:17:20;;;;;;;18.92;14.00;;;;;;;18.99;67.12;99720.91;6098256;23;20110;-79
2021/09/27 05:20:02;;;;;;;16.08;13.15;;;;;;;19.01;67.17;99718.91;6097400;23;20469;-79
2021/09/27 05:22:56;;;;;;;18.27;14.10;;;;;;;19.02;67.17;99710.78;6097493;23;20061;-79
2021/09/27 05:26:00;;;;;;;14.95;13.07;;;;;;;19.01;66.94;99711.78;6097247;23;20062;-79
2021/09/27 05:28:43;;;;;;;16.80;13.63;;;;;;;19.03;66.50;99711.63;6096905;23;20097;-79
2021/09/27 05:31:32;;;;;;;16.95;13.45;;;;;;;19.02;66.62;99699.25;6096608;23;20018;-80
2021/09/27 05:34:27;;;;;;;18.20;13.95;;;;;;;18.99;66.80;99710.25;6098527;23;20026;-80
2021/09/27 05:37:42;;;;;;;15.48;13.25;;;;;;;18.96;66.44;99713.19;6098218;23;20109;-79
2021/09/27 05:40:09;;;;;;;17.05;12.95;;;;;;;18.96;65.88;99710.50;6091932;23;20413;-79
2021/09/27 05:43:07;;;;;;;17.70;13.27;;;;;;;18.87;66.71;99715.72;6096786;23;20101;-79
2021/09/27 05:45:47;;;;;;;14.82;12.23;;;;;;;18.88;65.92;99705.91;6096547;23;20501;-79
2021/09/27 05:48:23;;;;;;;15.75;12.32;;;;;;;18.83;66.51;99713.47;6098481;23;20035;-79
2021/09/27 05:51:01;;;;;;;16.33;12.80;;;;;;;18.80;66.74;99711.94;6097017;23;20093;-79
2021/09/27 05:54:15;;;;;;;18.25;13.07;;;;;;;18.74;67.14;99705.38;6097068;23;20105;-79
2021/09/27 05:57:25;;;;;;;15.43;12.23;;;;;;;18.76;67.03;99707.88;6085407;23;20022;-79
2021/09/27 06:00:00;;;;;;;15.77;12.35;;;;;;;18.79;66.45;99696.06;6096718;23;20350;-79
2021/09/27 06:02:42;;;;;;;14.40;12.02;;;;;;;18.74;67.11;99701.84;6097168;23;20109;-79
2021/09/27 06:05:38;;;;;;;14.88;12.32;;;;;;;18.80;66.46;99705.78;6096358;23;20587;-79
2021/09/27 06:08:11;;;;;;;19.10;13.05;;;;;;;18.78;66.89;99702.41;6083837;23;20113;-79
2021/09/27 06:10:48;;;;;;;13.98;12.30;;;;;;;18.78;66.86;99697.06;6096837;23;20519;-79
2021/09/27 06:13:23;;;;;;;16.83;12.27;;;;;;;18.80;66.36;99700.44;6095661;23;20109;-79
2021/09/27 06:16:12;;;;;;;20.02;12.82;;;;;;;18.77;67.41;99695.38;6096304;23;20075;-79
2021/09/27 06:18:57;;;;;;;14.80;12.15;;;;;;;18.78;67.23;99692.59;6096320;23;20031;-79
2021/09/27 06:21:50;;;;;;;15.18;11.75;;;;;;;18.82;66.96;99696.66;6091401;23;20019;-79
2021/09/27 06:24:32;;;;;;;12.30;10.93;;;;;;;18.82;67.38;99704.66;6094808;23;20026;-79
2021/09/27 06:27:05;;;;;;;13.85;11.43;;;;;;;18.89;67.35;99702.25;6095741;23;20457;-79
2021/09/27 06:29:45;;;;;;;14.13;11.15;;;;;;;18.91;67.33;99696.78;6095482;23;20026;-79
2021/09/27 06:32:21;;;;;;;14.50;10.65;;;;;;;18.95;67.48;99695.50;6095923;23;20090;-79
2021/09/27 06:34:52;;;;;;;13.73;11.30;;;;;;;19.00;67.22;99690.56;6095648;23;20114;-79
2021/09/27 06:37:22;;;;;;;15.70;11.80;;;;;;;19.04;66.89;99694.63;6095728;23;20030;-79
2021/09/27 06:39:51;;;;;;;14.55;11.25;;;;;;;19.07;66.64;99697.06;6095891;23;20028;-79
2021/09/27 06:42:18;;;;;;;15.10;11.55;;;;;;;19.11;66.72;99702.94;6096029;23;20029;-79
2021/09/27 06:44:46;;;;;;;12.77;11.05;;;;;;;19.14;66.86;99697.31;6095439;23;20109;-79
2021/09/27 06:47:14;;;;;;;13.43;11.13;;;;;;;19.16;66.54;99689.13;6096487;23;20401;-79
2021/09/27 06:49:43;;;;;;;14.00;11.10;;;;;;;19.19;66.93;99694.19;6096098;23;20778;-79
2021/09/27 06:52:09;;;;;;;12.88;10.20;;;;;;;19.23;66.66;99696.44;6095724;23;20022;-79
2021/09/27 06:54:36;;;;;;;15.05;11.60;;;;;;;19.26;66.84;99698.78;6094553;23;20028;-79
2021/09/27 06:57:03;;;;;;;15.13;11.35;;;;;;;19.30;66.67;99695.84;6094651;23;20153;-79
2021/09/27 06:59:31;;;;;;;11.63;10.30;;;;;;;19.32;66.57;99688.56;6095731;23;20319;-79
2021/09/27 07:02:18;;;;;;;12.00;10.27;;;;;;;19.37;66.23;99688.94;6095890;23;20030;-79
2021/09/27 07:04:45;;;;;;;15.38;10.65;;;;;;;19.38;66.41;99685.28;6094577;23;20022;-79
2021/09/27 07:07:13;;;;;;;12.05;9.82;;;;;;;19.40;66.54;99678.81;6094072;23;20026;-79
2021/09/27 07:09:39;;;;;;;11.80;10.55;;;;;;;19.44;66.41;99679.34;6094259;23;20058;-79
2021/09/27 07:12:09;;;;;;;15.30;10.50;;;;;;;19.50;66.49;99683.25;6093433;23;20033;-79
2021/09/27 07:14:36;;;;;;;11.68;9.70;;;;;;;19.55;66.31;99677.50;6093681;23;20122;-79
2021/09/27 07:17:03;;;;;;;10.88;9.50;;;;;;;19.60;66.33;99684.06;6094339;23;20026;-79
2021/09/27 07:19:30;;;;;;;13.30;9.80;;;;;;;19.64;66.30;99677.44;6095077;23;20030;-79
2021/09/27 07:21:58;;;;;;;13.70;9.98;;;;;;;19.70;66.19;99677.84;6094873;23;20073;-79
2021/09/27 07:24:25;;;;;;;15.45;9.68;;;;;;;19.76;65.87;99685.22;6094904;23;20072;-79
2021/09/27 07:26:52;;;;;;;12.93;10.27;;;;;;;19.80;65.75;99678.59;6094590;23;20030;-79
2021/09/27 07:29:19;;;;;;;14.82;9.68;;;;;;;19.83;65.53;99672.97;6095311;23;20496;-79
2021/09/27 07:31:45;;;;;;;13.15;9.68;;;;;;;19.84;65.17;99676.50;6094652;23;20058;-79
2021/09/27 07:34:12;;;;;;;11.63;10.00;;;;;;;19.82;65.08;99665.97;6096317;23;20022;-79
2021/09/27 07:36:39;;;;;;;12.32;10.38;;;;;;;19.78;64.97;99669.91;6095132;23;20037;-79
2021/09/27 07:39:07;;;;;;;13.95;10.55;;;;;;;19.75;65.13;99664.88;6094740;23;20038;-79
2021/09/27 07:41:34;;;;;;;12.80;10.23;;;;;;;19.71;64.98;99671.50;6095435;23;20398;-79
2021/09/27 07:44:03;;;;;;;12.07;9.63;;;;;;;19.67;65.36;99663.78;6096357;23;20027;-79
2021/09/27 07:46:30;;;;;;;12.23;10.05;;;;;;;19.66;65.30;99667.44;6096412;23;20065;-79
2021/09/27 07:48:59;;;;;;;11.45;9.57;;;;;;;19.62;65.90;99666.06;6096680;23;20030;-79
2021/09/27 07:51:26;;;;;;;10.15;9.05;;;;;;;19.63;65.86;99665.06;6094624;23;20022;-79
2021/09/27 07:53:54;;;;;;;13.32;10.80;;;;;;;19.64;65.57;99668.59;6095101;23;20030;-79
2021/09/27 07:56:21;;;;;;;12.18;9.35;;;;;;;19.65;65.84;99668.44;6095143;23;20097;-79
2021/09/27 07:58:48;;;;;;;14.00;9.70;;;;;;;19.68;65.81;99664.63;6094762;23;20068;-79
2021/09/27 08:01:15;;;;;;;15.82;10.60;;;;;;;19.69;65.59;99663.63;6094973;23;20064;-79
2021/09/27 08:03:42;;;;;;;11.50;10.30;;;;;;;19.71;65.95;99671.50;6094261;23;20027;-79
2021/09/27 08:06:11;;;;;;;12.07;8.98;;;;;;;19.73;65.88;99666.84;6095178;23;20034;-79
2021/09/27 08:08:38;;;;;;;13.05;9.60;;;;;;;19.74;65.69;99665.88;6094715;23;20098;-79
2021/09/27 08:11:05;;;;;;;11.60;9.95;;;;;;;19.76;66.05;99662.06;6095776;23;20037;-79
2021/09/27 08:13:33;;;;;;;13.00;9.77;;;;;;;19.79;65.76;99669.78;6095298;23;20030;-79
2021/09/27 08:16:00;;;;;;;12.38;10.43;;;;;;;19.82;66.12;99668.63;6094438;23;20025;-79
2021/09/27 08:18:28;;;;;;;12.48;10.25;;;;;;;19.87;66.15;99674.34;6095340;23;20346;-79
2021/09/27 08:20:59;;;;;;;11.88;9.38;;;;;;;19.93;66.58;99681.75;6094818;23;20061;-79
2021/09/27 08:23:26;;;;;;;10.90;9.13;;;;;;;20.03;66.56;99675.53;6096367;23;20026;-79
2021/09/27 08:25:53;;;;;;;13.13;9.15;;;;;;;20.14;66.43;99677.13;6094453;23;20029;-79
2021/09/27 08:28:23;;;;;;;10.00;8.68;;;;;;;20.24;66.22;99682.41;6095576;23;20109;-79
2021/09/27 08:30:56;;;;;;;11.05;8.68;;;;;;;20.34;65.80;99690.38;6095421;23;20026;-79
2021/09/27 08:33:27;;;;;;;9.70;7.95;;;;;;;20.44;65.87;99680.44;6095343;23;20365;-79
2021/09/27 08:35:57;;;;;;;12.80;8.35;;;;;;;20.54;65.54;99683.03;6096901;23;20026;-79
2021/09/27 08:38:27;;;;;;;10.70;7.88;;;;;;;20.61;65.36;99684.09;6097157;23;20019;-79
2021/09/27 08:41:02;;;;;;;14.27;8.73;;;;;;;20.70;65.20;99679.63;6098867;23;20105;-79
2021/09/27 08:43:31;;;;;;;11.75;8.60;;;;;;;20.75;64.77;99684.53;6097573;23;20022;-79
2021/09/27 08:46:16;;;;;;;10.07;7.75;;;;;;;20.78;64.55;99682.38;6097462;23;20105;-79
2021/09/27 08:48:57;;;;;;;9.27;8.15;;;;;;;20.86;64.51;99694.13;6097416;23;20078;-79
2021/09/27 08:51:25;;;;;;;10.25;7.32;;;;;;;20.92;64.53;99685.50;6096122;23;20379;-79
2021/09/27 08:53:54;;;;;;;12.15;8.30;;;;;;;20.97;64.35;99688.53;6096936;23;20125;-80
2021/09/27 08:56:29;;;;;;;10.10;8.55;;;;;;;21.00;64.06;99690.09;6096083;23;20523;-79
2021/09/27 08:59:44;;;;;;;12.15;8.40;;;;;;;21.03;64.06;99687.94;6096703;23;20026;-79
2021/09/27 09:02:15;;;;;;;9.75;7.55;;;;;;;21.09;63.54;99686.47;6052947;23;20419;-79
2021/09/27 09:04:48;;;;;;;11.13;7.70;;;;;;;21.11;63.54;99684.44;6096903;23;20036;-79
2021/09/27 09:07:21;;;;;;;10.43;7.78;;;;;;;21.11;63.19;99676.41;6097099;23;20106;-79
2021/09/27 09:09:53;;;;;;;;;;;;;;;21.11;63.54;99673.75;6097877;23;20328;-79
2021/09/27 09:12:51;;;;;;;11.17;7.90;;;;;;;21.12;63.39;99670.06;6096883;23;19996;-80
2021/09/27 09:15:23;;;;;;;10.00;7.60;;;;;;;21.18;63.68;99668.59;6094603;23;20374;-80
2021/09/27 09:17:59;;;;;;;9.63;6.80;;;;;;;21.19;63.99;99649.69;6097241;23;20031;-80
2021/09/27 09:20:32;;;;;;;8.57;7.65;;;;;;;21.26;63.90;99644.53;6097124;23;20375;-80
2021/09/27 09:22:59;;;;;;;8.45;7.63;;;;;;;21.35;64.07;99640.91;6097276;23;20497;-79
2021/09/27 09:25:38;;;;;;;8.15;6.88;;;;;;;21.43;63.78;99634.75;6096905;23;20026;-80
2021/09/27 09:28:09;;;;;;;8.50;7.57;;;;;;;21.57;63.71;99635.97;6097189;23;20412;-80
2021/09/27 09:31:04;;;;;;;10.10;7.13;;;;;;;21.66;63.15;99642.19;6098603;23;20094;-80
2021/09/27 09:33:48;;;;;;;8.68;7.80;;;;;;;21.81;63.02;99633.53;6096847;23;20077;-80
2021/09/27 09:36:39;;;;;;;8.98;7.40;;;;;;;21.93;62.74;99634.06;6097045;23;20062;-80
2021/09/27 09:39:14;;;;;;;8.98;7.00;;;;;;;22.03;61.85;99640.13;6084675;23;20105;-80
2021/09/27 09:41:54;;;;;;;10.63;7.63;;;;;;;22.13;61.68;99632.75;6096370;23;20062;-80
2021/09/27 09:44:33;;;;;;;8.50;7.13;;;;;;;22.20;61.73;99640.97;6096128;23;20105;-80
2021/09/27 09:47:02;;;;;;;8.63;7.72;;;;;;;22.27;61.58;99638.44;6097809;23;20031;-80
2021/09/27 09:49:56;;;;;;;8.13;7.32;;;;;;;22.32;61.65;99638.78;6096249;23;20037;-80
2021/09/27 09:53:02;;;;;;;10.10;7.65;;;;;;;22.40;61.35;99629.91;6096176;23;20022;-80
2021/09/27 09:55:40;;;;;;;11.52;7.63;;;;;;;22.47;59.86;99636.28;6096217;23;20030;-79
2021/09/27 09:58:14;;;;;;;13.65;7.47;;;;;;;22.51;60.07;99636.78;6094954;23;20097;-80
2021/09/27 10:00:51;;;;;;;9.70;8.00;;;;;;;22.49;59.82;99628.06;6096637;23;20022;-79
2021/09/27 10:03:31;;;;;;;8.90;7.65;;;;;;;22.50;59.56;99633.25;6096760;23;20034;-80
2021/09/27 10:06:06;;;;;;;10.45;7.63;;;;;;;22.52;59.96;99639.31;6096497;23;20331;-79
2021/09/27 10:08:35;;;;;;;11.55;8.02;;;;;;;22.55;59.82;99646.22;6096382;23;20109;-79
2021/09/27 10:11:06;;;;;;;7.90;7.10;;;;;;;22.57;59.86;99646.03;6096401;23;20026;-79
2021/09/27 10:13:52;;;;;;;10.93;7.80;;;;;;;22.57;59.59;99644.19;6096855;23;20105;-79
2021/09/27 10:16:45;;;;;;;8.45;6.82;;;;;;;22.58;59.82;99645.84;6096563;23;20027;-79
2021/09/27 10:19:24;;;;;;;10.15;8.15;;;;;;;22.60;59.24;99643.84;6096246;23;20022;-79
2021/09/27 10:22:05;;;;;;;10.95;7.72;;;;;;;22.63;59.47;99645.34;6096513;23;20027;-79
2021/09/27 10:24:45;;;;;;;9.93;7.43;;;;;;;22.62;59.49;99641.00;6097350;23;20022;-80
2021/09/27 10:27:20;;;;;;;11.27;7.47;;;;;;;22.63;59.32;99640.00;6096725;23;20386;-80
2021/09/27 10:29:48;;;;;;;7.90;6.60;;;;;;;22.66;59.38;99628.94;6096553;23;20446;-79
2021/09/27 10:32:38;;;;;;;9.38;7.15;;;;;;;22.63;59.59;99635.47;6096460;23;20094;-80
2021/09/27 10:35:11;;;;;;;9.02;7.13;;;;;;;22.71;59.53;99629.25;6096241;23;20030;-79
2021/09/27 10:37:39;;;;;;;9.90;7.55;;;;;;;22.84;60.63;99623.34;6090555;23;20109;-80
2021/09/27 10:40:11;;;;;;;8.25;6.75;;;;;;;22.98;60.39;99620.94;6096125;23;20057;-80
2021/09/27 10:42:48;;;;;;;9.57;7.15;;;;;;;23.20;60.45;99616.69;6097662;23;20023;-80
2021/09/27 10:45:20;;;;;;;8.02;6.55;;;;;;;23.46;61.14;99617.44;6095800;23;20022;-80
2021/09/27 10:47:52;;;;;;;8.75;6.90;;;;;;;23.71;60.04;99607.41;6095821;23;20097;-80
2021/09/27 10:50:25;;;;;;;7.53;6.73;;;;;;;23.97;59.95;99608.91;6096521;23;20100;-79
2021/09/27 10:52:52;;;;;;;;;;;;;;;24.19;60.55;99603.75;6096306;23;20259;-80
2021/09/27 10:55:32;;;;;;;9.70;6.00;;;;;;;24.47;58.45;99605.84;6095693;23;19925;-80
2021/09/27 10:58:06;;;;;;;10.55;6.63;;;;;;;24.68;57.39;99609.69;6094561;23;20029;-80
2021/09/27 11:00:47;;;;;;;7.90;6.88;;;;;;;24.83;57.02;99610.53;6094460;23;20097;-80
2021/09/27 11:03:27;;;;;;;7.93;7.13;;;;;;;24.97;56.01;99610.75;6095940;23;20018;-80
2021/09/27 11:06:00;;;;;;;8.07;6.90;;;;;;;25.02;54.83;99613.72;6095577;23;20075;-80
2021/09/27 11:09:02;;;;;;;7.07;6.38;;;;;;;25.00;55.17;99617.63;6096128;23;20354;-80
2021/09/27 11:11:29;;;;;;;6.57;5.97;;;;;;;25.03;54.83;99611.84;6093447;23;20350;-80
2021/09/27 11:14:18;;;;;;;6.68;6.07;;;;;;;24.87;54.27;99613.72;6095999;23;20049;-80
2021/09/27 11:16:53;;;;;;;7.75;6.20;;;;;;;24.81;53.94;99617.94;6097571;23;20101;-80
2021/09/27 11:19:32;;;;;;;8.73;6.88;;;;;;;24.64;53.60;99619.13;6096118;23;20022;-79
2021/09/27 11:22:36;;;;;;;7.47;6.68;;;;;;;24.48;54.42;99615.56;6095887;23;20026;-80
2021/09/27 11:25:09;;;;;;;7.35;6.65;;;;;;;24.38;53.88;99612.31;6050644;23;20421;-80
2021/09/27 11:27:38;;;;;;;7.05;6.40;;;;;;;24.28;54.52;99608.03;6095769;23;20069;-80
2021/09/27 11:30:20;;;;;;;7.70;6.88;;;;;;;24.15;54.73;99611.31;6095857;23;20057;-80
2021/09/27 11:32:56;;;;;;;6.90;6.27;;;;;;;24.12;54.97;99602.78;6096141;23;20381;-80
2021/09/27 11:35:33;;;;;;;9.00;6.53;;;;;;;24.07;55.70;99606.81;6095301;23;20058;-80
2021/09/27 11:38:06;;;;;;;6.85;6.13;;;;;;;24.11;55.47;99603.81;6095759;23;20022;-80
2021/09/27 11:40:40;;;;;;;9.43;6.38;;;;;;;24.12;55.15;99608.16;6095561;23;20038;-79
2021/09/27 11:43:53;;;;;;;6.72;6.03;;;;;;;24.10;55.78;99594.03;6095853;23;20023;-80
2021/09/27 11:46:44;;;;;;;8.27;6.13;;;;;;;24.25;57.31;99599.50;6097230;23;20390;-79
2021/09/27 11:52:15;;;;;;;8.93;5.50;;;;;;;24.77;56.98;99600.50;6096830;23;20029;-80
2021/09/27 11:54:55;;;;;;;6.97;5.72;;;;;;;25.04;55.63;99587.44;6086456;23;20026;-80
2021/09/27 11:57:22;;;;;;;6.97;6.28;;;;;;;25.32;56.05;99584.06;6095520;23;20031;-80
2021/09/27 12:00:03;;;;;;;6.68;5.55;;;;;;;25.60;55.01;99585.25;6095603;23;20038;-80
2021/09/27 12:02:50;;;;;;;6.10;5.28;;;;;;;25.88;53.09;99587.16;6095793;23;20353;-80
2021/09/27 12:05:38;;;;;;;6.43;4.80;;;;;;;26.07;52.75;99585.69;6095183;23;20101;-80
2021/09/27 12:08:17;;;;;;;6.63;5.03;;;;;;;26.20;52.09;99579.56;6095351;23;20050;-80
2021/09/27 12:10:50;;;;;;;5.18;4.78;;;;;;;26.24;51.26;99580.03;6095717;23;20026;-80
2021/09/27 12:13:21;;;;;;;6.90;5.47;;;;;;;26.27;50.99;99575.09;6097777;23;20350;-80
2021/09/27 12:15:59;;;;;;;4.90;4.32;;;;;;;26.34;51.59;99575.13;6097267;23;20025;-80
2021/09/27 12:18:40;;;;;;;5.68;4.13;;;;;;;26.51;52.31;99564.06;6097479;23;20027;-80
2021/09/27 12:21:27;;;;;;;4.43;4.13;;;;;;;26.71;51.25;99560.63;6097232;23;20052;-80
2021/09/27 12:24:07;;;;;;;4.97;3.78;;;;;;;26.92;50.34;99554.31;6096825;23;20022;-80
2021/09/27 12:26:46;;;;;;;5.75;4.20;;;;;;;27.04;49.76;99562.72;6096824;23;20121;-80
2021/09/27 12:29:17;;;;;;;4.72;3.90;;;;;;;27.12;48.73;99564.41;6096651;23;20118;-80
2021/09/27 12:31:59;;;;;;;3.92;3.42;;;;;;;27.03;48.74;99571.84;6097773;23;20458;-80
2021/09/27 12:34:34;;;;;;;6.53;3.97;;;;;;;26.95;47.41;99561.22;6097508;23;20113;-80